Time;durP1;ratioP1;P1;durP2;ratioP2;P2;SDS_P1;SDS_P2;PMS_P1;PMS_P2;Temp;Humidity;BMP_temperature;BMP_pressure;BME280_temperature;BME280_humidity;BME280_pressure;Samples;Min_cycle;Max_cycle;Signal;HPM_P1;HPM_P2
2023/11/27 00:00:52;;;;;;;9.47;4.77;;;4.10;99.90;;;;;;4922876;29;20197;-87
2023/11/27 00:03:18;;;;;;;7.17;5.07;;;4.10;99.90;;;;;;4919829;29;20559;-87
2023/11/27 00:05:44;;;;;;;10.67;4.90;;;4.10;99.90;;;;;;4923066;29;20280;-85
2023/11/27 00:08:10;;;;;;;9.00;4.63;;;4.10;99.90;;;;;;4922483;29;20289;-87
2023/11/27 00:10:36;;;;;;;11.67;4.83;;;4.10;99.90;;;;;;4922871;29;20297;-87
2023/11/27 00:13:03;;;;;;;8.80;5.10;;;4.10;99.90;;;;;;4939991;29;20225;-87
2023/11/27 00:15:28;;;;;;;15.07;5.27;;;4.10;99.90;;;;;;4918163;29;20198;-87
2023/11/27 00:17:54;;;;;;;9.80;5.07;;;4.10;99.90;;;;;;4939556;29;20201;-87
2023/11/27 00:20:20;;;;;;;9.23;5.00;;;4.10;99.90;;;;;;4922221;29;20228;-87
2023/11/27 00:22:47;;;;;;;11.67;5.13;;;4.20;99.90;;;;;;4931766;29;20186;-87
2023/11/27 00:25:13;;;;;;;8.43;5.03;;;4.10;99.90;;;;;;4922738;29;20196;-87
2023/11/27 00:27:39;;;;;;;10.63;5.17;;;4.10;99.90;;;;;;4922389;29;20576;-86
2023/11/27 00:30:07;;;;;;;12.20;5.30;;;4.20;99.90;;;;;;4922526;29;20272;-87
2023/11/27 00:32:34;;;;;;;12.73;5.10;;;4.20;99.90;;;;;;4922382;29;20202;-86
2023/11/27 00:35:00;;;;;;;8.97;4.53;;;4.20;99.90;;;;;;4922285;29;20194;-87
2023/11/27 00:37:26;;;;;;;6.77;5.33;;;4.20;99.90;;;;;;4939253;29;20184;-86
2023/11/27 00:39:51;;;;;;;10.30;5.33;;;4.20;99.90;;;;;;4922395;29;20194;-86
2023/11/27 00:42:20;;;;;;;8.43;5.57;;;4.20;99.90;;;;;;4922283;29;20194;-86
2023/11/27 00:44:47;;;;;;;9.20;4.97;;;4.20;99.90;;;;;;4922515;29;20210;-86
2023/11/27 00:47:13;;;;;;;11.13;5.73;;;4.10;99.90;;;;;;4921925;29;20186;-86
2023/11/27 00:49:38;;;;;;;8.37;5.33;;;4.20;99.90;;;;;;4922012;29;20285;-85
2023/11/27 00:52:04;;;;;;;9.97;5.57;;;4.10;99.90;;;;;;4921518;29;20202;-87
2023/11/27 00:54:30;;;;;;;10.20;5.73;;;4.10;99.90;;;;;;4922248;29;20181;-86
2023/11/27 00:56:56;;;;;;;7.43;5.50;;;4.10;99.90;;;;;;4922138;29;20281;-86
2023/11/27 00:59:21;;;;;;;11.87;6.20;;;4.10;99.90;;;;;;4921830;29;20228;-86
2023/11/27 01:01:48;;;;;;;9.50;6.63;;;4.10;99.90;;;;;;4938528;29;20174;-86
2023/11/27 01:04:14;;;;;;;10.73;5.63;;;4.10;99.90;;;;;;4921900;29;20182;-85
2023/11/27 01:06:42;;;;;;;8.60;5.43;;;4.10;99.90;;;;;;4921663;29;20258;-86
2023/11/27 01:09:08;;;;;;;11.00;4.90;;;4.10;99.90;;;;;;4921832;29;20282;-85
2023/11/27 01:11:36;;;;;;;9.70;5.47;;;4.10;99.90;;;;;;4938789;29;20186;-87
2023/11/27 01:14:02;;;;;;;6.33;4.13;;;4.10;99.90;;;;;;4938498;29;20193;-86
2023/11/27 01:16:27;;;;;;;5.37;4.67;;;4.20;99.90;;;;;;4921194;29;20523;-86
2023/11/27 01:18:53;;;;;;;11.03;5.30;;;4.20;99.90;;;;;;4917991;29;20226;-86
2023/11/27 01:21:22;;;;;;;10.30;5.40;;;4.20;99.90;;;;;;4921535;29;20182;-85
2023/11/27 01:23:48;;;;;;;10.20;5.60;;;4.20;99.90;;;;;;4921235;29;20193;-85
2023/11/27 01:26:14;;;;;;;11.23;5.63;;;4.20;99.90;;;;;;4921391;29;20692;-85
2023/11/27 01:28:39;;;;;;;10.03;5.70;;;4.20;99.90;;;;;;4921312;29;20244;-86
2023/11/27 01:31:06;;;;;;;7.03;5.87;;;4.20;99.90;;;;;;4918040;29;20701;-86
2023/11/27 01:33:33;;;;;;;9.40;5.63;;;4.20;99.90;;;;;;4921211;29;20185;-86
2023/11/27 01:35:58;;;;;;;8.70;5.80;;;4.20;99.90;;;;;;4921331;29;20204;-86
2023/11/27 01:38:24;;;;;;;12.37;6.40;;;4.20;99.90;;;;;;4921219;29;20213;-86
2023/11/27 01:40:50;;;;;;;11.33;7.43;;;4.20;99.90;;;;;;4921329;29;20185;-87
2023/11/27 01:43:16;;;;;;;7.83;6.47;;;4.20;99.90;;;;;;4921185;29;20237;-87
2023/11/27 01:45:42;;;;;;;11.77;6.90;;;4.20;99.90;;;;;;4920956;29;20186;-86
2023/11/27 01:48:09;;;;;;;11.30;7.37;;;4.20;99.90;;;;;;4937800;29;20212;-86
2023/11/27 01:50:36;;;;;;;9.17;6.10;;;4.20;99.90;;;;;;4921095;29;20193;-88
2023/11/27 01:53:04;;;;;;;7.57;5.40;;;4.20;99.90;;;;;;4920863;29;20276;-88
2023/11/27 01:55:30;;;;;;;6.70;4.73;;;4.20;99.90;;;;;;4921404;29;20198;-87
2023/11/27 01:57:57;;;;;;;8.73;4.33;;;4.20;99.90;;;;;;4920877;29;20206;-88
2023/11/27 02:00:23;;;;;;;6.17;4.17;;;4.20;99.90;;;;;;4938067;29;20178;-87
2023/11/27 02:02:49;;;;;;;6.30;4.10;;;4.20;99.90;;;;;;4927672;29;20179;-87
2023/11/27 02:05:16;;;;;;;4.87;3.83;;;4.20;99.90;;;;;;4908939;29;20250;-87
2023/11/27 02:07:43;;;;;;;4.90;3.20;;;4.20;99.90;;;;;;4916495;29;20238;-87
2023/11/27 02:10:10;;;;;;;4.77;3.20;;;4.10;99.90;;;;;;4913010;29;20190;-87
2023/11/27 02:12:37;;;;;;;8.03;3.20;;;4.10;99.90;;;;;;4920865;29;20185;-86
2023/11/27 02:15:04;;;;;;;5.90;3.30;;;4.10;99.90;;;;;;4937904;29;20186;-88
2023/11/27 02:17:29;;;;;;;5.90;3.60;;;4.10;99.90;;;;;;4937434;29;20528;-88
2023/11/27 02:19:55;;;;;;;5.73;3.30;;;4.10;99.90;;;;;;4920821;29;20648;-88
2023/11/27 02:22:24;;;;;;;6.37;3.20;;;4.10;99.90;;;;;;4920924;29;20640;-90
2023/11/27 02:24:49;;;;;;;5.20;3.40;;;4.10;99.90;;;;;;4920823;29;20194;-87
2023/11/27 02:27:15;;;;;;;6.00;3.47;;;4.10;99.90;;;;;;4937761;29;20571;-89
2023/11/27 02:29:41;;;;;;;6.13;3.77;;;4.10;99.90;;;;;;4937642;29;20558;-88
2023/11/27 02:32:07;;;;;;;5.43;3.53;;;4.10;99.90;;;;;;4920461;29;20225;-87
2023/11/27 02:34:33;;;;;;;6.10;3.20;;;4.10;99.90;;;;;;4920310;29;20189;-87
2023/11/27 02:36:59;;;;;;;7.90;3.47;;;4.10;99.90;;;;;;4919344;29;20236;-89
2023/11/27 02:39:24;;;;;;;6.73;2.83;;;4.10;99.90;;;;;;4917041;29;20226;-87
2023/11/27 02:41:50;;;;;;;7.23;2.80;;;4.10;99.90;;;;;;4920410;29;20197;-87
2023/11/27 02:44:16;;;;;;;6.07;2.50;;;4.10;99.90;;;;;;4920697;29;20190;-87
2023/11/27 02:46:41;;;;;;;3.27;2.40;;;4.10;99.90;;;;;;4920534;29;20186;-87
2023/11/27 02:49:07;;;;;;;4.13;2.30;;;4.10;99.90;;;;;;4937479;29;20269;-88
2023/11/27 02:51:40;;;;;;;8.87;2.10;;;4.00;99.90;;;;;;4937395;29;20519;-88
2023/11/27 02:54:10;;;;;;;2.00;1.30;;;4.10;99.90;;;;;;4937426;29;20666;-86
2023/11/27 02:56:36;;;;;;;3.07;1.20;;;4.10;99.90;;;;;;4937359;29;20190;-87
2023/11/27 02:59:02;;;;;;;3.63;1.30;;;4.10;99.90;;;;;;4920287;29;20273;-87
2023/11/27 03:01:28;;;;;;;1.20;1.00;;;4.00;99.90;;;;;;4920258;29;20182;-86
2023/11/27 03:03:54;;;;;;;1.10;0.80;;;4.00;99.90;;;;;;4920440;29;20767;-86
2023/11/27 03:06:19;;;;;;;2.10;1.20;;;4.10;99.90;;;;;;4920060;29;20268;-87
2023/11/27 03:08:45;;;;;;;1.80;0.87;;;4.00;99.90;;;;;;4937203;29;20186;-86
2023/11/27 03:11:11;;;;;;;0.63;0.63;;;4.00;99.90;;;;;;4917966;29;20715;-85
2023/11/27 03:13:39;;;;;;;1.37;1.00;;;4.00;99.90;;;;;;4932972;29;20621;-86
2023/11/27 03:16:05;;;;;;;1.33;1.23;;;3.90;99.90;;;;;;4922321;29;20193;-86
2023/11/27 03:18:31;;;;;;;1.77;1.20;;;3.90;99.90;;;;;;4923394;29;20890;-86
2023/11/27 03:20:57;;;;;;;1.93;1.20;;;3.90;99.90;;;;;;4923470;29;20190;-86
2023/11/27 03:23:24;;;;;;;2.60;1.10;;;4.00;99.90;;;;;;4938621;29;20195;-86
2023/11/27 03:25:50;;;;;;;1.10;1.00;;;3.90;99.90;;;;;;4937889;29;20197;-86
2023/11/27 03:28:16;;;;;;;1.63;1.00;;;3.90;99.90;;;;;;4923334;29;20186;-86
2023/11/27 03:30:42;;;;;;;1.47;1.07;;;3.90;99.90;;;;;;4923309;29;20249;-85
2023/11/27 03:33:09;;;;;;;1.60;1.10;;;4.00;99.90;;;;;;4922916;29;20633;-86
2023/11/27 03:35:35;;;;;;;2.03;1.03;;;4.00;99.90;;;;;;4923468;29;20226;-86
2023/11/27 03:38:00;;;;;;;1.53;1.20;;;4.00;99.90;;;;;;4922878;29;20221;-86
2023/11/27 03:40:26;;;;;;;2.43;1.10;;;4.00;99.90;;;;;;4923215;29;20186;-86
2023/11/27 03:42:56;;;;;;;1.77;1.00;;;4.00;99.90;;;;;;4917318;29;20178;-86
2023/11/27 03:45:22;;;;;;;1.43;1.13;;;4.00;99.90;;;;;;4923371;29;20196;-86
2023/11/27 03:47:47;;;;;;;1.73;1.10;;;4.00;99.90;;;;;;4939893;29;20174;-87
2023/11/27 03:50:13;;;;;;;1.23;0.90;;;4.00;99.90;;;;;;4923124;29;20237;-86
2023/11/27 03:52:43;;;;;;;2.00;1.40;;;4.00;99.90;;;;;;4923016;29;20178;-87
2023/11/27 03:55:09;;;;;;;3.73;1.10;;;4.00;99.90;;;;;;4922830;29;20224;-85
2023/11/27 03:57:35;;;;;;;4.60;1.50;;;4.00;99.90;;;;;;4920382;29;20186;-86
2023/11/27 04:02:37;;;;;;;5.43;2.43;;;4.00;99.90;;;;;;5035561;23;20283;-86
2023/11/27 04:05:03;;;;;;;3.60;2.40;;;4.00;99.90;;;;;;4884543;29;20673;-86
2023/11/27 04:07:30;;;;;;;4.13;2.80;;;4.00;99.90;;;;;;4901450;29;20270;-86
2023/11/27 04:09:55;;;;;;;5.23;2.73;;;4.00;99.90;;;;;;4901973;29;20610;-86
2023/11/27 04:12:22;;;;;;;5.33;2.50;;;4.10;99.90;;;;;;4877570;29;20198;-86
2023/11/27 04:14:48;;;;;;;2.67;2.13;;;4.10;99.90;;;;;;4885201;29;20247;-87
2023/11/27 04:17:13;;;;;;;5.87;2.87;;;4.10;99.90;;;;;;4884634;29;20183;-87
2023/11/27 04:19:39;;;;;;;4.80;2.60;;;4.10;99.90;;;;;;4884834;29;20229;-87
2023/11/27 04:22:05;;;;;;;5.03;2.83;;;4.10;99.90;;;;;;4884924;29;20619;-86
2023/11/27 04:24:30;;;;;;;5.57;2.80;;;4.10;99.90;;;;;;4884961;29;20263;-87
2023/11/27 04:26:56;;;;;;;6.27;3.70;;;4.10;99.90;;;;;;4884044;29;20191;-87
2023/11/27 04:29:22;;;;;;;4.13;3.40;;;4.00;99.90;;;;;;4884731;29;20331;-87
2023/11/27 04:31:47;;;;;;;6.80;3.37;;;4.00;99.90;;;;;;4884253;29;20201;-87
2023/11/27 04:34:14;;;;;;;6.43;3.97;;;4.00;99.90;;;;;;4884860;29;20226;-86
2023/11/27 04:36:39;;;;;;;7.93;3.83;;;4.00;99.90;;;;;;4884864;29;20195;-86
2023/11/27 04:39:10;;;;;;;6.50;3.80;;;4.00;99.90;;;;;;4901201;29;20618;-86
2023/11/27 04:41:42;;;;;;;7.00;4.40;;;4.00;99.90;;;;;;4884722;29;20191;-86
2023/11/27 04:44:08;;;;;;;5.20;4.17;;;4.00;99.90;;;;;;4876605;29;20247;-86
2023/11/27 04:46:34;;;;;;;9.53;4.23;;;4.00;99.90;;;;;;4883659;29;20187;-87
2023/11/27 04:49:00;;;;;;;6.93;4.33;;;4.00;99.90;;;;;;4884206;29;20255;-86
2023/11/27 04:51:27;;;;;;;5.33;4.50;;;4.00;99.90;;;;;;4884491;29;20210;-86
2023/11/27 04:53:55;;;;;;;7.13;4.77;;;4.00;99.90;;;;;;4884509;29;20586;-86
2023/11/27 04:56:20;;;;;;;6.13;3.80;;;4.00;99.90;;;;;;4884180;29;20243;-86
2023/11/27 04:58:46;;;;;;;9.23;4.20;;;4.00;99.90;;;;;;4900872;29;20219;-87
2023/11/27 05:01:12;;;;;;;6.93;4.00;;;4.00;99.90;;;;;;4883908;29;20227;-87
2023/11/27 05:03:40;;;;;;;5.97;4.30;;;4.00;99.90;;;;;;4884271;29;20195;-87
2023/11/27 05:06:06;;;;;;;4.57;3.57;;;4.10;99.90;;;;;;4884146;29;20323;-87
2023/11/27 05:08:31;;;;;;;4.93;3.90;;;4.00;99.90;;;;;;4884063;29;20254;-86
2023/11/27 05:10:57;;;;;;;4.47;3.70;;;4.00;99.90;;;;;;4884136;29;20194;-87
2023/11/27 05:13:24;;;;;;;5.00;4.20;;;4.00;99.90;;;;;;4884124;29;20285;-87
2023/11/27 05:15:49;;;;;;;5.00;4.30;;;4.00;99.90;;;;;;4883836;29;20191;-87
2023/11/27 05:18:15;;;;;;;7.03;4.77;;;4.00;99.90;;;;;;4892683;29;20217;-87
2023/11/27 05:20:42;;;;;;;5.57;4.40;;;4.00;99.90;;;;;;4884044;29;20203;-87
2023/11/27 05:23:10;;;;;;;6.90;5.07;;;4.00;99.90;;;;;;4883614;29;20198;-87
2023/11/27 05:25:35;;;;;;;7.77;4.70;;;4.00;99.90;;;;;;4883932;29;20203;-87
2023/11/27 05:28:01;;;;;;;5.10;4.10;;;4.00;99.90;;;;;;4883509;29;20266;-86
2023/11/27 05:30:27;;;;;;;5.67;4.77;;;4.00;99.90;;;;;;4883865;29;20682;-86
2023/11/27 05:32:55;;;;;;;7.30;5.00;;;4.00;99.90;;;;;;4883164;29;20195;-87
2023/11/27 05:35:21;;;;;;;6.27;5.20;;;4.00;99.90;;;;;;4883818;29;20191;-87
2023/11/27 05:37:47;;;;;;;8.63;5.40;;;4.00;99.90;;;;;;4883213;29;20195;-87
2023/11/27 05:40:13;;;;;;;6.27;5.37;;;4.10;99.90;;;;;;4883452;29;20656;-87
2023/11/27 05:42:43;;;;;;;8.63;5.80;;;4.10;99.90;;;;;;4883507;29;20195;-85
2023/11/27 05:45:12;;;;;;;7.37;5.27;;;4.10;99.90;;;;;;4883311;29;20540;-87
2023/11/27 05:47:39;;;;;;;8.83;5.90;;;4.10;99.90;;;;;;4899785;29;20194;-87
2023/11/27 05:50:06;;;;;;;10.40;6.20;;;4.00;99.90;;;;;;4900139;29;20282;-85
2023/11/27 05:52:32;;;;;;;11.20;6.70;;;4.10;99.90;;;;;;4899870;29;20311;-87
2023/11/27 05:54:59;;;;;;;10.83;6.57;;;4.10;99.90;;;;;;4883418;29;20648;-87
2023/11/27 05:57:25;;;;;;;9.93;7.17;;;4.00;99.90;;;;;;4883107;29;20199;-86
2023/11/27 05:59:50;;;;;;;9.43;7.00;;;4.00;99.90;;;;;;4882929;29;20572;-86
2023/11/27 06:02:16;;;;;;;10.87;6.67;;;4.00;99.90;;;;;;4882950;29;20670;-86
2023/11/27 06:04:45;;;;;;;7.60;6.40;;;4.00;99.90;;;;;;4883339;29;20605;-87
2023/11/27 06:07:11;;;;;;;13.60;7.03;;;4.00;99.90;;;;;;4883171;29;20191;-87
2023/11/27 06:09:36;;;;;;;9.77;6.97;;;4.10;99.90;;;;;;4875500;29;20199;-86
2023/11/27 06:12:02;;;;;;;7.57;6.17;;;4.10;99.90;;;;;;4882985;29;20190;-86
2023/11/27 06:14:28;;;;;;;9.70;7.13;;;4.00;99.90;;;;;;4883132;29;20564;-87
2023/11/27 06:16:53;;;;;;;12.97;7.57;;;4.00;99.90;;;;;;4866084;29;20192;-87
2023/11/27 06:19:19;;;;;;;8.93;6.73;;;4.00;99.90;;;;;;4871712;29;20216;-86
2023/11/27 06:21:45;;;;;;;11.50;6.90;;;3.90;99.90;;;;;;4879777;29;20187;-86
2023/11/27 06:24:10;;;;;;;12.33;7.23;;;4.00;99.90;;;;;;4883001;29;20214;-87
2023/11/27 06:26:36;;;;;;;9.53;7.27;;;4.00;99.90;;;;;;4882782;29;20191;-86
2023/11/27 06:29:02;;;;;;;11.90;7.77;;;4.00;99.90;;;;;;4882678;29;20195;-86
2023/11/27 06:31:28;;;;;;;11.83;7.37;;;4.00;99.90;;;;;;4882914;29;20191;-86
2023/11/27 06:33:55;;;;;;;12.60;7.50;;;4.00;99.90;;;;;;4882736;29;20190;-86
2023/11/27 06:36:22;;;;;;;15.50;8.73;;;4.00;99.90;;;;;;4882952;29;20327;-87
2023/11/27 06:38:47;;;;;;;9.87;7.83;;;4.00;99.90;;;;;;4899377;29;20210;-87
2023/11/27 06:41:13;;;;;;;11.43;8.30;;;4.00;99.90;;;;;;4899242;29;20266;-86
2023/11/27 06:43:39;;;;;;;11.40;8.00;;;4.00;99.90;;;;;;4899850;29;20607;-87
2023/11/27 06:46:05;;;;;;;10.37;8.10;;;3.90;99.90;;;;;;4882914;29;20209;-86
2023/11/27 06:48:31;;;;;;;9.90;7.57;;;3.90;99.90;;;;;;4882575;29;20214;-86
2023/11/27 06:50:57;;;;;;;9.83;8.03;;;3.90;99.90;;;;;;4885281;29;20187;-86
2023/11/27 06:53:30;;;;;;;9.00;7.67;;;3.90;99.90;;;;;;4886607;29;20239;-86
2023/11/27 06:55:56;;;;;;;10.83;8.07;;;4.00;99.90;;;;;;4886752;29;20225;-87
2023/11/27 06:58:21;;;;;;;12.53;7.57;;;4.00;99.90;;;;;;4886678;29;20264;-86
2023/11/27 07:00:47;;;;;;;10.37;7.77;;;4.00;99.90;;;;;;4886417;29;20261;-87
2023/11/27 07:03:14;;;;;;;9.97;8.17;;;4.00;99.90;;;;;;4886235;29;20202;-87
2023/11/27 07:05:39;;;;;;;9.63;7.53;;;3.90;99.90;;;;;;4878878;29;20202;-87
2023/11/27 07:08:05;;;;;;;12.63;7.20;;;3.90;99.90;;;;;;4886139;29;20627;-87
2023/11/27 07:10:32;;;;;;;11.83;7.70;;;3.90;99.90;;;;;;4886237;29;20665;-87
2023/11/27 07:12:58;;;;;;;12.43;8.00;;;3.90;99.90;;;;;;4886130;29;20195;-85
2023/11/27 07:15:23;;;;;;;13.97;7.73;;;3.90;99.90;;;;;;4881071;29;20288;-86
2023/11/27 07:17:49;;;;;;;11.83;7.60;;;3.90;99.90;;;;;;4883177;29;20206;-87
2023/11/27 07:20:18;;;;;;;12.83;7.77;;;3.90;99.90;;;;;;4886179;29;20199;-86
2023/11/27 07:22:46;;;;;;;15.27;8.60;;;3.90;99.90;;;;;;4902773;29;20189;-86
2023/11/27 07:25:14;;;;;;;10.23;7.87;;;3.90;99.90;;;;;;4886117;29;20528;-87
2023/11/27 07:27:43;;;;;;;10.67;7.83;;;3.90;99.90;;;;;;4886139;29;20195;-87
2023/11/27 07:30:09;;;;;;;14.10;7.43;;;3.90;99.90;;;;;;4885948;29;20246;-86
2023/11/27 07:32:35;;;;;;;12.83;7.20;;;3.90;99.90;;;;;;4885718;29;20282;-87
2023/11/27 07:35:02;;;;;;;11.13;7.13;;;3.90;99.90;;;;;;4878354;29;20284;-88
2023/11/27 07:37:27;;;;;;;13.43;7.57;;;3.90;99.90;;;;;;4886059;29;20641;-88
2023/11/27 07:39:53;;;;;;;11.43;7.83;;;3.90;99.90;;;;;;4885986;29;20242;-87
2023/11/27 07:42:19;;;;;;;11.27;7.70;;;3.90;99.90;;;;;;4885988;29;20203;-87
2023/11/27 07:44:46;;;;;;;13.30;8.70;;;3.90;99.90;;;;;;4885708;29;20247;-87
2023/11/27 07:47:12;;;;;;;9.57;6.87;;;3.90;99.90;;;;;;4885639;29;20187;-87
2023/11/27 07:49:37;;;;;;;11.57;7.63;;;3.90;99.90;;;;;;4885372;29;20197;-85
2023/11/27 07:52:03;;;;;;;11.47;7.40;;;3.90;99.90;;;;;;4885201;29;20512;-86
2023/11/27 07:54:33;;;;;;;8.87;6.50;;;3.90;99.90;;;;;;4885647;29;20191;-87
2023/11/27 07:56:59;;;;;;;7.60;6.23;;;4.00;99.90;;;;;;4885677;29;20191;-87
2023/11/27 07:59:27;;;;;;;10.83;5.93;;;4.00;99.90;;;;;;4894461;29;20214;-88
2023/11/27 08:01:53;;;;;;;11.23;6.43;;;3.90;99.90;;;;;;4876482;29;20279;-86
2023/11/27 08:04:19;;;;;;;8.20;6.47;;;4.00;99.90;;;;;;4882782;29;20188;-87
2023/11/27 08:06:44;;;;;;;10.37;6.47;;;4.00;99.90;;;;;;4884058;29;20645;-85
2023/11/27 08:09:11;;;;;;;8.80;7.53;;;4.00;99.90;;;;;;4874961;29;20195;-87
2023/11/27 08:11:37;;;;;;;12.77;7.27;;;4.00;99.90;;;;;;4885436;29;20223;-88
2023/11/27 08:14:03;;;;;;;11.60;8.33;;;4.00;99.90;;;;;;4877855;29;20222;-87
2023/11/27 08:16:29;;;;;;;10.57;7.40;;;4.10;99.90;;;;;;4898584;29;20211;-87
2023/11/27 08:18:54;;;;;;;10.47;7.70;;;4.10;99.90;;;;;;4875187;29;20214;-87
2023/11/27 08:21:20;;;;;;;12.73;7.77;;;4.10;99.90;;;;;;4874157;29;20188;-87
2023/11/27 08:23:47;;;;;;;9.70;7.50;;;4.10;99.90;;;;;;4885080;29;20191;-88
2023/11/27 08:26:16;;;;;;;11.30;8.10;;;4.20;99.90;;;;;;4885252;29;20187;-88
2023/11/27 08:28:43;;;;;;;11.90;8.20;;;4.20;99.90;;;;;;4884863;29;20179;-88
2023/11/27 08:31:09;;;;;;;9.07;7.43;;;4.20;99.90;;;;;;4884804;29;20198;-88
2023/11/27 08:33:34;;;;;;;12.00;8.07;;;4.20;99.90;;;;;;4884824;29;20199;-88
2023/11/27 08:36:03;;;;;;;11.70;7.37;;;4.20;99.90;;;;;;4884718;29;20536;-87
2023/11/27 08:38:30;;;;;;;10.70;7.03;;;4.20;99.90;;;;;;4884698;29;20207;-87
2023/11/27 08:40:56;;;;;;;10.40;6.80;;;4.20;99.90;;;;;;4899849;29;20187;-87
2023/11/27 08:43:22;;;;;;;8.03;6.13;;;4.20;99.90;;;;;;4881630;29;20183;-87
2023/11/27 08:45:49;;;;;;;7.43;5.77;;;4.20;99.90;;;;;;4884058;29;20259;-87
2023/11/27 08:48:15;;;;;;;9.07;6.20;;;4.20;99.90;;;;;;4883766;29;20187;-89
2023/11/27 08:50:42;;;;;;;10.00;6.23;;;4.30;99.90;;;;;;4878373;29;20239;-88
2023/11/27 08:53:09;;;;;;;9.97;6.03;;;4.30;99.90;;;;;;4884387;29;20611;-89
2023/11/27 08:55:35;;;;;;;9.43;5.10;;;4.30;99.90;;;;;;4883741;29;20258;-87
2023/11/27 08:58:06;;;;;;;11.63;5.60;;;4.30;99.90;;;;;;4869400;29;20191;-87
2023/11/27 09:00:32;;;;;;;7.83;5.20;;;4.30;99.90;;;;;;4870360;29;20195;-87
2023/11/27 09:02:59;;;;;;;8.97;5.57;;;4.30;99.90;;;;;;4883935;29;20531;-88
2023/11/27 09:05:26;;;;;;;5.63;4.63;;;4.40;99.90;;;;;;4883991;29;20203;-87
2023/11/27 09:07:57;;;;;;;7.90;4.90;;;4.40;99.90;;;;;;4868995;29;20192;-87
2023/11/27 09:10:24;;;;;;;10.10;5.60;;;4.40;99.90;;;;;;4876673;29;20607;-87
2023/11/27 09:12:50;;;;;;;8.33;5.17;;;4.40;99.90;;;;;;4883671;29;20258;-87
2023/11/27 09:15:18;;;;;;;9.10;5.50;;;4.40;99.90;;;;;;4882990;29;20195;-87
2023/11/27 09:17:45;;;;;;;7.80;5.20;;;4.40;99.90;;;;;;4868546;29;20275;-88
2023/11/27 09:20:12;;;;;;;9.50;5.73;;;4.40;99.90;;;;;;4876701;29;20286;-88
2023/11/27 09:22:42;;;;;;;7.00;5.13;;;4.40;99.90;;;;;;4900788;29;20194;-87
2023/11/27 09:25:15;;;;;;;8.60;5.70;;;4.40;99.90;;;;;;4873805;29;20202;-87
2023/11/27 09:27:41;;;;;;;7.97;5.87;;;4.50;99.90;;;;;;4883915;29;20526;-87
2023/11/27 09:30:08;;;;;;;10.07;6.27;;;4.50;99.90;;;;;;4875728;29;20187;-86
2023/11/27 09:32:35;;;;;;;9.23;5.70;;;4.50;99.90;;;;;;4868214;29;20188;-87
2023/11/27 09:35:08;;;;;;;9.07;5.40;;;4.50;99.90;;;;;;4882778;29;20524;-88
2023/11/27 09:37:36;;;;;;;8.77;5.57;;;4.60;99.90;;;;;;4883731;29;20290;-87
2023/11/27 09:40:03;;;;;;;9.03;6.13;;;4.60;99.90;;;;;;4875931;29;20220;-87
2023/11/27 09:42:35;;;;;;;9.73;5.60;;;4.60;99.90;;;;;;4883526;29;20187;-88
2023/11/27 09:45:04;;;;;;;7.93;5.70;;;4.60;99.90;;;;;;4888401;29;20244;-87
2023/11/27 09:47:31;;;;;;;11.40;5.90;;;4.60;99.90;;;;;;4875038;29;20191;-87
2023/11/27 09:49:59;;;;;;;10.03;5.90;;;4.60;99.90;;;;;;4883041;29;20253;-88
2023/11/27 09:52:34;;;;;;;8.57;6.23;;;4.60;99.90;;;;;;4895375;29;20242;-87
2023/11/27 09:55:05;;;;;;;8.93;6.37;;;4.60;99.90;;;;;;4883392;29;20202;-87
2023/11/27 09:57:33;;;;;;;9.80;6.10;;;4.60;99.90;;;;;;4875883;29;20195;-87
2023/11/27 10:00:00;;;;;;;7.07;5.57;;;4.60;99.90;;;;;;4883359;29;20218;-87
2023/11/27 10:02:25;;;;;;;6.90;5.37;;;4.60;99.90;;;;;;4883113;29;20708;-86
2023/11/27 10:04:53;;;;;;;8.23;5.87;;;4.70;99.90;;;;;;4883196;29;20195;-87
2023/11/27 10:07:21;;;;;;;8.80;6.80;;;4.70;99.90;;;;;;4879052;29;20192;-86
2023/11/27 10:09:51;;;;;;;11.57;6.80;;;4.70;99.90;;;;;;4883319;29;20197;-87
2023/11/27 10:12:28;;;;;;;8.60;6.73;;;4.70;99.90;;;;;;4871559;29;20543;-87
2023/11/27 10:14:57;;;;;;;9.23;6.13;;;4.70;99.90;;;;;;4883196;29;20247;-87
2023/11/27 10:17:25;;;;;;;7.73;6.27;;;4.60;99.90;;;;;;4883284;29;20555;-88
2023/11/27 10:19:56;;;;;;;7.70;5.80;;;4.70;99.90;;;;;;4882908;29;20237;-87
2023/11/27 10:22:22;;;;;;;9.40;6.33;;;4.60;99.90;;;;;;4875233;29;20210;-88
2023/11/27 10:24:48;;;;;;;7.97;6.40;;;4.70;99.90;;;;;;4869603;29;20221;-86
2023/11/27 10:27:13;;;;;;;7.90;5.93;;;4.60;99.90;;;;;;4877750;29;20630;-88
2023/11/27 10:29:39;;;;;;;7.87;6.43;;;4.60;99.90;;;;;;4883176;29;20191;-88
2023/11/27 10:32:05;;;;;;;8.73;6.17;;;4.60;99.90;;;;;;4883126;29;20187;-88
2023/11/27 10:34:34;;;;;;;5.97;5.30;;;4.60;99.90;;;;;;4882902;29;20250;-86
2023/11/27 10:37:02;;;;;;;8.47;5.40;;;4.60;99.90;;;;;;4893296;29;20200;-86
2023/11/27 10:39:36;;;;;;;8.80;5.63;;;4.60;99.90;;;;;;4875136;29;20698;-86
2023/11/27 10:42:03;;;;;;;7.60;5.50;;;4.60;99.90;;;;;;4882975;29;20198;-87
2023/11/27 10:44:40;;;;;;;7.40;5.63;;;4.60;99.90;;;;;;4883195;29;20199;-88
2023/11/27 10:47:07;;;;;;;9.70;5.43;;;4.60;99.90;;;;;;4882676;29;20265;-87
2023/11/27 10:49:37;;;;;;;8.30;6.03;;;4.50;99.90;;;;;;4882692;29;20187;-87
2023/11/27 10:52:04;;;;;;;7.43;5.90;;;4.50;99.90;;;;;;4882699;29;20243;-87
2023/11/27 10:54:32;;;;;;;7.10;5.20;;;4.60;99.90;;;;;;4881600;29;20195;-85
2023/11/27 10:57:06;;;;;;;7.17;6.20;;;4.60;99.90;;;;;;4882652;29;20195;-85
2023/11/27 10:59:33;;;;;;;8.97;5.83;;;4.60;99.90;;;;;;4873006;29;20219;-86
2023/11/27 11:02:02;;;;;;;7.43;5.93;;;4.60;99.90;;;;;;4881977;29;20231;-86
2023/11/27 11:04:40;;;;;;;8.43;5.57;;;4.60;99.90;;;;;;4881363;29;20635;-87
2023/11/27 11:07:19;;;;;;;8.03;5.43;;;4.60;99.90;;;;;;4882515;29;20187;-86
2023/11/27 11:09:48;;;;;;;7.83;5.57;;;4.60;99.90;;;;;;4882441;29;20187;-86
2023/11/27 11:12:23;;;;;;;5.90;5.03;;;4.60;99.90;;;;;;4880836;29;20274;-86
2023/11/27 11:14:55;;;;;;;8.70;6.80;;;4.60;99.90;;;;;;4878255;29;20179;-87
2023/11/27 11:17:23;;;;;;;11.70;7.67;;;4.60;99.90;;;;;;4882276;29;20183;-86
2023/11/27 11:20:13;;;;;;;6.93;5.50;;;4.60;99.90;;;;;;4882139;29;20242;-85
2023/11/27 11:22:52;;;;;;;8.37;6.13;;;4.60;99.90;;;;;;4874540;29;20224;-89
2023/11/27 11:25:41;;;;;;;12.23;6.30;;;4.60;99.90;;;;;;4871641;29;20199;-87
2023/11/27 11:28:31;;;;;;;7.40;5.70;;;4.60;99.90;;;;;;4897335;29;20539;-86
2023/11/27 11:31:09;;;;;;;6.67;4.53;;;4.60;99.90;;;;;;4881699;29;20319;-86
2023/11/27 11:33:35;;;;;;;10.03;5.63;;;4.60;99.90;;;;;;4898794;29;20193;-85
2023/11/27 11:36:02;;;;;;;8.37;4.90;;;4.60;99.90;;;;;;4900058;29;20198;-86
2023/11/27 11:38:31;;;;;;;6.67;4.93;;;4.60;99.90;;;;;;4885494;29;20214;-85
2023/11/27 11:40:56;;;;;;;8.57;6.73;;;4.50;99.90;;;;;;4885134;29;20187;-85
2023/11/27 11:43:24;;;;;;;6.47;5.10;;;4.60;99.90;;;;;;4885320;29;20183;-85
2023/11/27 11:45:50;;;;;;;5.70;3.90;;;4.60;99.90;;;;;;4885268;29;20195;-85
2023/11/27 11:48:18;;;;;;;6.83;3.90;;;4.60;99.90;;;;;;4885210;29;20240;-86
2023/11/27 11:50:46;;;;;;;6.20;4.10;;;4.60;99.90;;;;;;4885478;29;20233;-85
2023/11/27 11:53:21;;;;;;;5.67;4.03;;;4.60;99.90;;;;;;4894461;29;20259;-86
2023/11/27 11:55:50;;;;;;;6.17;3.87;;;4.60;99.90;;;;;;4884984;29;20190;-84
2023/11/27 11:58:22;;;;;;;4.30;3.50;;;4.60;99.90;;;;;;4887013;29;20217;-85
2023/11/27 12:00:50;;;;;;;5.43;3.83;;;4.60;99.90;;;;;;4884964;29;20211;-85
2023/11/27 12:03:18;;;;;;;5.27;3.00;;;4.60;99.90;;;;;;4885014;29;20599;-84
2023/11/27 12:05:56;;;;;;;5.13;2.83;;;4.60;99.90;;;;;;4885076;29;20199;-85
2023/11/27 12:08:33;;;;;;;3.30;2.70;;;4.60;99.90;;;;;;4878893;29;20285;-86
2023/11/27 12:11:00;;;;;;;4.27;3.10;;;4.60;99.90;;;;;;4883321;29;20197;-85
2023/11/27 12:13:36;;;;;;;5.00;3.00;;;4.60;99.90;;;;;;4885000;29;20187;-85
2023/11/27 12:16:11;;;;;;;3.93;2.83;;;4.60;99.90;;;;;;4901915;29;20649;-86
2023/11/27 12:18:42;;;;;;;5.40;4.00;;;4.60;99.90;;;;;;4884621;29;20230;-86
2023/11/27 12:21:14;;;;;;;5.03;3.40;;;4.60;99.90;;;;;;4884696;29;20191;-85
2023/11/27 12:23:40;;;;;;;6.83;4.40;;;4.60;99.90;;;;;;4884409;29;20195;-85
2023/11/27 12:26:07;;;;;;;7.10;3.97;;;4.50;99.90;;;;;;4882455;29;20243;-85
2023/11/27 12:28:36;;;;;;;5.57;3.57;;;4.50;99.90;;;;;;4884307;29;20274;-85
2023/11/27 12:31:03;;;;;;;6.90;4.30;;;4.50;99.90;;;;;;4884427;29;20190;-86
2023/11/27 12:33:29;;;;;;;6.57;4.50;;;4.60;99.90;;;;;;4884413;29;20187;-86
2023/11/27 12:35:55;;;;;;;7.60;5.50;;;4.50;99.90;;;;;;4883388;29;20638;-86
2023/11/27 12:38:24;;;;;;;5.97;4.40;;;4.50;99.90;;;;;;4884722;29;20263;-86
2023/11/27 12:40:52;;;;;;;9.53;4.57;;;4.60;99.90;;;;;;4884208;29;20206;-84
2023/11/27 12:43:18;;;;;;;7.80;5.20;;;4.60;99.90;;;;;;4884518;29;20655;-86
2023/11/27 12:45:46;;;;;;;9.80;4.73;;;4.50;99.90;;;;;;4884391;29;20199;-86
2023/11/27 12:48:21;;;;;;;8.73;5.13;;;4.50;99.90;;;;;;4883146;29;20219;-87
2023/11/27 12:50:52;;;;;;;13.17;6.33;;;4.50;99.90;;;;;;4876660;29;20227;-85
2023/11/27 12:53:20;;;;;;;8.20;5.30;;;4.50;99.90;;;;;;4884339;29;20211;-86
2023/11/27 12:55:48;;;;;;;9.60;5.13;;;4.50;99.90;;;;;;4884606;29;20603;-86
2023/11/27 12:58:17;;;;;;;11.23;6.03;;;4.50;99.90;;;;;;4884102;29;20243;-86